Time;durP1;ratioP1;P1;durP2;ratioP2;P2;SDS_P1;SDS_P2;PMS_P1;PMS_P2;Temp;Humidity;BMP_temperature;BMP_pressure;BME280_temperature;BME280_humidity;BME280_pressure;Samples;Min_cycle;Max_cycle;Signal;HPM_P1;HPM_P2
2023/08/19 00:01:36;;;;;;;0.00;0.00;;;;;;;;;;5071099;28;20041;-79
2023/08/19 00:04:02;;;;;;;0.00;0.00;;;;;;;;;;5070670;28;20414;-79
2023/08/19 00:06:39;;;;;;;0.00;0.00;;;;;;;;;;5071236;28;20090;-79
2023/08/19 00:09:06;;;;;;;0.00;0.00;;;;;;;;;;5087543;28;20076;-79
2023/08/19 00:11:32;;;;;;;0.00;0.00;;;;;;;;;;5072079;28;20522;-79
2023/08/19 00:13:59;;;;;;;0.00;0.00;;;;;;;;;;5070653;28;20048;-79
2023/08/19 00:16:26;;;;;;;0.00;0.00;;;;;;;;;;5070770;28;20181;-79
2023/08/19 00:18:51;;;;;;;0.00;0.00;;;;;;;;;;5072267;28;20036;-79
2023/08/19 00:21:17;;;;;;;0.63;0.00;;;;;;;;;;5070790;28;20056;-79
2023/08/19 00:23:43;;;;;;;0.00;0.00;;;;;;;;;;5072213;28;20483;-79
2023/08/19 00:26:12;;;;;;;0.00;0.00;;;;;;;;;;5070874;28;20048;-79
2023/08/19 00:28:39;;;;;;;0.00;0.00;;;;;;;;;;5072051;28;20496;-79
2023/08/19 00:31:06;;;;;;;0.00;0.00;;;;;;;;;;5072061;28;20044;-79
2023/08/19 00:33:32;;;;;;;0.00;0.00;;;;;;;;;;5076012;28;20119;-79
2023/08/19 00:35:59;;;;;;;0.00;0.00;;;;;;;;;;5091423;28;20488;-79
2023/08/19 00:38:25;;;;;;;0.00;0.00;;;;;;;;;;5075664;28;20487;-79
2023/08/19 00:40:51;;;;;;;0.00;0.00;;;;;;;;;;5075511;28;20434;-79
2023/08/19 00:43:17;;;;;;;0.00;0.00;;;;;;;;;;5074322;28;20160;-79
2023/08/19 00:45:50;;;;;;;0.00;0.00;;;;;;;;;;5075416;28;20492;-79
2023/08/19 00:48:18;;;;;;;0.00;0.00;;;;;;;;;;5075765;28;20048;-79
2023/08/19 00:50:45;;;;;;;0.00;0.00;;;;;;;;;;5075247;28;20048;-79
2023/08/19 00:53:12;;;;;;;0.00;0.00;;;;;;;;;;5074328;28;20036;-79
2023/08/19 00:55:38;;;;;;;0.00;0.00;;;;;;;;;;5075079;28;20139;-79
2023/08/19 00:58:05;;;;;;;0.00;0.00;;;;;;;;;;5074053;28;20123;-79
2023/08/19 01:00:31;;;;;;;0.00;0.00;;;;;;;;;;5075248;28;20059;-79
2023/08/19 01:02:58;;;;;;;0.00;0.00;;;;;;;;;;5074297;28;20387;-79
2023/08/19 01:05:28;;;;;;;0.00;0.00;;;;;;;;;;5075114;28;20037;-79
2023/08/19 01:07:58;;;;;;;0.00;0.00;;;;;;;;;;5075272;28;20506;-79
2023/08/19 01:10:30;;;;;;;0.00;0.00;;;;;;;;;;5074549;28;20105;-79
2023/08/19 01:13:05;;;;;;;0.00;0.00;;;;;;;;;;5073671;28;20446;-79
2023/08/19 01:15:34;;;;;;;0.20;0.00;;;;;;;;;;5073543;28;20044;-79
2023/08/19 01:18:00;;;;;;;0.00;0.00;;;;;;;;;;5075177;28;20079;-79
2023/08/19 01:20:31;;;;;;;0.00;0.00;;;;;;;;;;5074715;28;20138;-79
2023/08/19 01:23:00;;;;;;;0.00;0.00;;;;;;;;;;5075004;28;20040;-79
2023/08/19 01:25:26;;;;;;;0.00;0.00;;;;;;;;;;5090450;28;20047;-79
2023/08/19 01:27:52;;;;;;;0.00;0.00;;;;;;;;;;5073680;28;20044;-79
2023/08/19 01:30:18;;;;;;;0.00;0.00;;;;;;;;;;5074497;28;20041;-79
2023/08/19 01:32:45;;;;;;;0.00;0.00;;;;;;;;;;5074786;28;20048;-79
2023/08/19 01:35:13;;;;;;;0.00;0.00;;;;;;;;;;5090097;28;20513;-79
2023/08/19 01:37:58;;;;;;;0.00;0.00;;;;;;;;;;5073511;28;20048;-79
2023/08/19 01:40:24;;;;;;;0.00;0.00;;;;;;;;;;5074280;28;20464;-79
2023/08/19 01:42:51;;;;;;;0.00;0.00;;;;;;;;;;5071917;28;20475;-79
2023/08/19 01:45:17;;;;;;;0.00;0.00;;;;;;;;;;5073133;28;20044;-79
2023/08/19 01:47:43;;;;;;;0.00;0.00;;;;;;;;;;5074545;28;20041;-79
2023/08/19 01:50:09;;;;;;;0.00;0.00;;;;;;;;;;5074546;28;20040;-79
2023/08/19 01:52:36;;;;;;;0.08;0.08;;;;;;;;;;5089987;28;20502;-80
2023/08/19 01:55:02;;;;;;;0.00;0.00;;;;;;;;;;5072735;28;20200;-79
2023/08/19 01:57:28;;;;;;;0.00;0.00;;;;;;;;;;5073075;28;20079;-79
2023/08/19 01:59:57;;;;;;;0.00;0.00;;;;;;;;;;5072791;28;20043;-78
2023/08/19 02:02:23;;;;;;;1.00;0.13;;;;;;;;;;5072885;28;20049;-79
2023/08/19 02:04:49;;;;;;;0.00;0.00;;;;;;;;;;5072768;28;20040;-79
2023/08/19 02:07:15;;;;;;;0.32;0.32;;;;;;;;;;5074101;28;20220;-79
2023/08/19 02:09:42;;;;;;;0.00;0.00;;;;;;;;;;5073873;28;20105;-78
2023/08/19 02:12:08;;;;;;;0.00;0.00;;;;;;;;;;5073961;28;20071;-78
2023/08/19 02:14:34;;;;;;;0.00;0.00;;;;;;;;;;5072538;28;20092;-79
2023/08/19 02:17:00;;;;;;;0.00;0.00;;;;;;;;;;5072344;28;20044;-79
2023/08/19 02:19:26;;;;;;;0.38;0.05;;;;;;;;;;5073807;28;20479;-79
2023/08/19 02:21:52;;;;;;;0.00;0.00;;;;;;;;;;5073790;28;20044;-78
2023/08/19 02:24:18;;;;;;;0.20;0.00;;;;;;;;;;5073809;28;20483;-79
2023/08/19 02:26:44;;;;;;;0.00;0.00;;;;;;;;;;5073653;28;20101;-78
2023/08/19 02:29:10;;;;;;;1.05;0.38;;;;;;;;;;5073648;28;20038;-78
2023/08/19 02:31:37;;;;;;;0.00;0.00;;;;;;;;;;5073257;28;20036;-78
2023/08/19 02:34:03;;;;;;;0.00;0.00;;;;;;;;;;5072262;28;20482;-77
2023/08/19 02:36:29;;;;;;;0.00;0.00;;;;;;;;;;5072069;28;20123;-78
2023/08/19 02:38:55;;;;;;;0.00;0.00;;;;;;;;;;5072262;28;20041;-78
2023/08/19 02:41:21;;;;;;;0.00;0.00;;;;;;;;;;5071809;28;20067;-79
2023/08/19 02:43:47;;;;;;;0.15;0.08;;;;;;;;;;5073542;28;20105;-78
2023/08/19 02:46:13;;;;;;;0.00;0.00;;;;;;;;;;5073053;28;20531;-79
2023/08/19 02:48:39;;;;;;;0.00;0.00;;;;;;;;;;5073583;28;20227;-79
2023/08/19 02:51:06;;;;;;;0.00;0.00;;;;;;;;;;5073012;28;20041;-79
2023/08/19 02:53:32;;;;;;;0.00;0.00;;;;;;;;;;5071690;28;20079;-79
2023/08/19 02:55:58;;;;;;;0.00;0.00;;;;;;;;;;5071834;28;20048;-79
2023/08/19 02:58:25;;;;;;;0.00;0.00;;;;;;;;;;5072211;28;20041;-78
2023/08/19 03:00:51;;;;;;;0.00;0.00;;;;;;;;;;5071933;28;20052;-78
2023/08/19 03:03:17;;;;;;;0.00;0.00;;;;;;;;;;5071875;28;20086;-79
2023/08/19 03:05:43;;;;;;;0.00;0.00;;;;;;;;;;5072947;28;20051;-78
2023/08/19 03:08:10;;;;;;;0.00;0.00;;;;;;;;;;5073269;28;20040;-78
2023/08/19 03:10:37;;;;;;;0.00;0.00;;;;;;;;;;5072734;28;20057;-79
2023/08/19 03:13:03;;;;;;;0.00;0.00;;;;;;;;;;5072791;28;20056;-78
2023/08/19 03:15:30;;;;;;;0.00;0.00;;;;;;;;;;5071634;28;20044;-78
2023/08/19 03:17:56;;;;;;;0.00;0.00;;;;;;;;;;5072976;28;20041;-78
2023/08/19 03:20:21;;;;;;;0.00;0.00;;;;;;;;;;5073431;28;20109;-78
2023/08/19 03:22:47;;;;;;;0.00;0.00;;;;;;;;;;5073045;28;20051;-78
2023/08/19 03:25:13;;;;;;;0.00;0.00;;;;;;;;;;5073006;28;20079;-79
2023/08/19 03:27:39;;;;;;;0.00;0.00;;;;;;;;;;5072436;28;20506;-78
2023/08/19 03:30:06;;;;;;;0.00;0.00;;;;;;;;;;5071243;28;20041;-78
2023/08/19 03:32:32;;;;;;;0.00;0.00;;;;;;;;;;5071073;28;20460;-78
2023/08/19 03:34:58;;;;;;;0.00;0.00;;;;;;;;;;5072920;28;20056;-78
2023/08/19 03:37:24;;;;;;;0.00;0.00;;;;;;;;;;5072399;28;20037;-78
2023/08/19 03:39:50;;;;;;;0.00;0.00;;;;;;;;;;5072530;28;20036;-79
2023/08/19 03:42:16;;;;;;;0.00;0.00;;;;;;;;;;5072276;28;20055;-78
2023/08/19 03:44:42;;;;;;;0.00;0.00;;;;;;;;;;5072595;28;20043;-78
2023/08/19 03:47:11;;;;;;;0.00;0.00;;;;;;;;;;5072468;28;20399;-78
2023/08/19 03:49:37;;;;;;;0.00;0.00;;;;;;;;;;5072462;28;20056;-79
2023/08/19 03:52:05;;;;;;;0.00;0.00;;;;;;;;;;5070720;28;20044;-78
2023/08/19 03:54:31;;;;;;;0.00;0.00;;;;;;;;;;5072468;28;20037;-78
2023/08/19 03:56:57;;;;;;;0.00;0.00;;;;;;;;;;5071080;28;20056;-79
2023/08/19 03:59:23;;;;;;;0.10;0.10;;;;;;;;;;5072192;28;20041;-78
2023/08/19 04:01:49;;;;;;;0.00;0.00;;;;;;;;;;5072296;28;20037;-79
2023/08/19 04:04:15;;;;;;;0.00;0.00;;;;;;;;;;5072451;28;20040;-78
2023/08/19 04:06:41;;;;;;;0.00;0.00;;;;;;;;;;5075133;28;20047;-78
2023/08/19 04:09:08;;;;;;;0.00;0.00;;;;;;;;;;5076446;28;20032;-79
2023/08/19 04:11:34;;;;;;;0.00;0.00;;;;;;;;;;5075530;28;20063;-79
2023/08/19 04:14:00;;;;;;;0.00;0.00;;;;;;;;;;5074929;28;20227;-79
2023/08/19 04:16:26;;;;;;;0.00;0.00;;;;;;;;;;5076187;28;20032;-78
2023/08/19 04:18:52;;;;;;;0.00;0.00;;;;;;;;;;5076252;28;20064;-79
2023/08/19 04:21:18;;;;;;;0.00;0.00;;;;;;;;;;5076023;28;20101;-79
2023/08/19 04:23:44;;;;;;;0.00;0.00;;;;;;;;;;5075089;28;20045;-78
2023/08/19 04:26:10;;;;;;;0.00;0.00;;;;;;;;;;5074806;28;20553;-78
2023/08/19 04:28:36;;;;;;;0.00;0.00;;;;;;;;;;5075934;28;20045;-77
2023/08/19 04:31:05;;;;;;;0.00;0.00;;;;;;;;;;5074459;28;20052;-78
2023/08/19 04:33:31;;;;;;;0.00;0.00;;;;;;;;;;5075815;28;20101;-78
2023/08/19 04:35:58;;;;;;;0.00;0.00;;;;;;;;;;5074549;28;20498;-78
2023/08/19 04:38:24;;;;;;;0.00;0.00;;;;;;;;;;5074188;28;20044;-78
2023/08/19 04:40:50;;;;;;;0.00;0.00;;;;;;;;;;5091248;28;20048;-79
2023/08/19 04:43:17;;;;;;;0.00;0.00;;;;;;;;;;5074589;28;20242;-79
2023/08/19 04:45:43;;;;;;;0.00;0.00;;;;;;;;;;5075684;28;20447;-79
2023/08/19 04:48:09;;;;;;;0.00;0.00;;;;;;;;;;5075495;28;20041;-78
2023/08/19 04:50:35;;;;;;;0.00;0.00;;;;;;;;;;5074026;28;20044;-79
2023/08/19 04:53:01;;;;;;;0.00;0.00;;;;;;;;;;5073846;28;20040;-79
2023/08/19 04:55:27;;;;;;;0.00;0.00;;;;;;;;;;5075658;28;20043;-79
2023/08/19 04:57:53;;;;;;;0.00;0.00;;;;;;;;;;5073865;28;20218;-79
2023/08/19 05:00:19;;;;;;;0.20;0.15;;;;;;;;;;5075425;28;20098;-78
2023/08/19 05:02:45;;;;;;;0.00;0.00;;;;;;;;;;5075072;28;20476;-79
2023/08/19 05:05:11;;;;;;;0.10;0.00;;;;;;;;;;5074049;28;20123;-79
2023/08/19 05:07:37;;;;;;;0.22;0.22;;;;;;;;;;5075056;28;20044;-78
2023/08/19 05:10:04;;;;;;;0.00;0.00;;;;;;;;;;5073649;28;20189;-79
2023/08/19 05:12:30;;;;;;;0.00;0.00;;;;;;;;;;5075110;28;20459;-79
2023/08/19 05:14:56;;;;;;;0.00;0.00;;;;;;;;;;5074275;28;20041;-79
2023/08/19 05:17:22;;;;;;;0.00;0.00;;;;;;;;;;5073215;28;20494;-79
2023/08/19 05:19:48;;;;;;;0.22;0.10;;;;;;;;;;5074829;28;20048;-79
2023/08/19 05:22:14;;;;;;;0.00;0.00;;;;;;;;;;5074633;28;20093;-79
2023/08/19 05:24:40;;;;;;;0.00;0.00;;;;;;;;;;5075095;28;20168;-79
2023/08/19 05:27:06;;;;;;;0.00;0.00;;;;;;;;;;5073415;28;20399;-79
2023/08/19 05:29:31;;;;;;;0.00;0.00;;;;;;;;;;5074853;28;20036;-79
2023/08/19 05:31:58;;;;;;;0.00;0.00;;;;;;;;;;5074785;28;20480;-79
2023/08/19 05:34:27;;;;;;;0.00;0.00;;;;;;;;;;5074605;28;20091;-79
2023/08/19 05:36:53;;;;;;;0.00;0.00;;;;;;;;;;5090359;28;20041;-79
2023/08/19 05:39:19;;;;;;;0.00;0.00;;;;;;;;;;5073329;28;20484;-79
2023/08/19 05:41:45;;;;;;;0.00;0.00;;;;;;;;;;5073264;28;20086;-79
2023/08/19 05:44:11;;;;;;;0.00;0.00;;;;;;;;;;5073016;28;20430;-79
2023/08/19 05:46:37;;;;;;;0.00;0.00;;;;;;;;;;5074649;28;20068;-79
2023/08/19 05:49:03;;;;;;;0.00;0.00;;;;;;;;;;5074150;28;20044;-79
2023/08/19 05:51:29;;;;;;;0.00;0.00;;;;;;;;;;5074344;28;20507;-79
2023/08/19 05:53:59;;;;;;;0.38;0.17;;;;;;;;;;5074050;28;20383;-79
2023/08/19 05:56:25;;;;;;;0.00;0.00;;;;;;;;;;5073021;28;20062;-79
2023/08/19 05:58:51;;;;;;;0.00;0.00;;;;;;;;;;5072815;28;20119;-79
2023/08/19 06:01:17;;;;;;;0.00;0.00;;;;;;;;;;5073050;28;20436;-79
2023/08/19 06:03:43;;;;;;;0.00;0.00;;;;;;;;;;5074001;28;20036;-79
2023/08/19 06:06:09;;;;;;;0.05;0.05;;;;;;;;;;5073845;28;20052;-78
2023/08/19 06:08:37;;;;;;;0.00;0.00;;;;;;;;;;5072556;28;20074;-79
2023/08/19 06:11:06;;;;;;;0.00;0.00;;;;;;;;;;5073867;28;20059;-80
2023/08/19 06:13:33;;;;;;;0.00;0.00;;;;;;;;;;5073703;28;20075;-79
2023/08/19 06:15:59;;;;;;;0.00;0.00;;;;;;;;;;5074139;28;20488;-79
2023/08/19 06:18:25;;;;;;;0.00;0.00;;;;;;;;;;5073516;28;20124;-79
2023/08/19 06:20:52;;;;;;;0.00;0.00;;;;;;;;;;5072396;28;20101;-79
2023/08/19 06:23:18;;;;;;;0.00;0.00;;;;;;;;;;5073621;28;20505;-79
2023/08/19 06:25:44;;;;;;;0.00;0.00;;;;;;;;;;5072693;28;20045;-80
2023/08/19 06:28:10;;;;;;;0.00;0.00;;;;;;;;;;5071566;28;20328;-81
2023/08/19 06:30:36;;;;;;;0.00;0.00;;;;;;;;;;5073337;28;20032;-80
2023/08/19 06:33:02;;;;;;;0.00;0.00;;;;;;;;;;5072093;28;20479;-80
2023/08/19 06:35:29;;;;;;;0.00;0.00;;;;;;;;;;5073478;28;20074;-79
2023/08/19 06:37:56;;;;;;;0.00;0.00;;;;;;;;;;5071871;28;20502;-80
2023/08/19 06:40:22;;;;;;;0.00;0.00;;;;;;;;;;5072284;28;20119;-80
2023/08/19 06:42:49;;;;;;;0.00;0.00;;;;;;;;;;5073260;28;20684;-80
2023/08/19 06:45:17;;;;;;;0.00;0.00;;;;;;;;;;5073458;28;20101;-80
2023/08/19 06:47:45;;;;;;;0.00;0.00;;;;;;;;;;5073397;28;20040;-81
2023/08/19 06:50:12;;;;;;;0.00;0.00;;;;;;;;;;5072974;28;20067;-84
2023/08/19 06:52:38;;;;;;;0.00;0.00;;;;;;;;;;5071825;28;20056;-82
2023/08/19 06:55:04;;;;;;;0.00;0.00;;;;;;;;;;5071417;28;20491;-82
2023/08/19 06:57:38;;;;;;;0.00;0.00;;;;;;;;;;5088581;28;20041;-80
2023/08/19 07:00:11;;;;;;;0.00;0.00;;;;;;;;;;5071670;28;20171;-80
2023/08/19 07:02:37;;;;;;;0.00;0.00;;;;;;;;;;5073572;28;20051;-80
2023/08/19 07:05:24;;;;;;;0.00;0.00;;;;;;;;;;5072932;28;20040;-79
2023/08/19 07:07:50;;;;;;;0.00;0.00;;;;;;;;;;5071420;28;20487;-80
2023/08/19 07:10:17;;;;;;;0.00;0.00;;;;;;;;;;5071137;28;20071;-80
2023/08/19 07:12:44;;;;;;;0.00;0.00;;;;;;;;;;5072928;28;20044;-79
2023/08/19 07:15:14;;;;;;;0.00;0.00;;;;;;;;;;5071260;28;20040;-79
2023/08/19 07:17:43;;;;;;;0.00;0.00;;;;;;;;;;5072708;28;20032;-80
2023/08/19 07:20:09;;;;;;;0.00;0.00;;;;;;;;;;5071155;28;20108;-79
2023/08/19 07:22:38;;;;;;;0.00;0.00;;;;;;;;;;5071380;28;20044;-80
2023/08/19 07:25:05;;;;;;;0.00;0.00;;;;;;;;;;5072507;28;20043;-80
2023/08/19 07:27:32;;;;;;;0.00;0.00;;;;;;;;;;5072578;28;20040;-80
2023/08/19 07:29:59;;;;;;;0.00;0.00;;;;;;;;;;5072504;28;20048;-80
2023/08/19 07:32:26;;;;;;;0.00;0.00;;;;;;;;;;5072727;28;20051;-79
2023/08/19 07:34:52;;;;;;;0.00;0.00;;;;;;;;;;5072673;28;20043;-79
2023/08/19 07:37:18;;;;;;;0.00;0.00;;;;;;;;;;5072695;28;20448;-80
2023/08/19 07:39:44;;;;;;;0.00;0.00;;;;;;;;;;5071055;28;20120;-79
2023/08/19 07:42:10;;;;;;;0.00;0.00;;;;;;;;;;5072733;28;20041;-80
2023/08/19 07:44:36;;;;;;;0.00;0.00;;;;;;;;;;5072258;28;20482;-80
2023/08/19 07:47:02;;;;;;;0.00;0.00;;;;;;;;;;5072527;28;20510;-80
2023/08/19 07:49:28;;;;;;;0.00;0.00;;;;;;;;;;5070983;28;20047;-80
2023/08/19 07:51:54;;;;;;;0.00;0.00;;;;;;;;;;5072377;28;20040;-79
2023/08/19 07:54:22;;;;;;;0.00;0.00;;;;;;;;;;5087967;28;20132;-80
2023/08/19 07:56:51;;;;;;;0.00;0.00;;;;;;;;;;5072426;28;20076;-80
2023/08/19 07:59:17;;;;;;;0.00;0.00;;;;;;;;;;5087757;28;20040;-80
2023/08/19 08:01:43;;;;;;;0.00;0.00;;;;;;;;;;5071334;28;20193;-80
2023/08/19 08:04:09;;;;;;;0.00;0.00;;;;;;;;;;5072716;28;20097;-80
2023/08/19 08:06:35;;;;;;;0.00;0.00;;;;;;;;;;5072804;28;20044;-79
2023/08/19 08:09:01;;;;;;;0.00;0.00;;;;;;;;;;5071928;28;20118;-81
2023/08/19 08:11:27;;;;;;;0.00;0.00;;;;;;;;;;5070032;28;20100;-81
2023/08/19 08:13:53;;;;;;;0.00;0.00;;;;;;;;;;5069729;28;20121;-80
2023/08/19 08:16:19;;;;;;;0.00;0.00;;;;;;;;;;5071504;28;20052;-80
2023/08/19 08:18:45;;;;;;;0.00;0.00;;;;;;;;;;5071126;28;20116;-79
2023/08/19 08:21:12;;;;;;;0.00;0.00;;;;;;;;;;5071254;28;20044;-80
2023/08/19 08:23:38;;;;;;;0.00;0.00;;;;;;;;;;5071275;28;20056;-80
2023/08/19 08:26:05;;;;;;;0.00;0.00;;;;;;;;;;5086924;28;20037;-79
2023/08/19 08:28:31;;;;;;;0.00;0.00;;;;;;;;;;5069941;28;20090;-79
2023/08/19 08:30:57;;;;;;;0.00;0.00;;;;;;;;;;5070841;28;20442;-80
2023/08/19 08:33:23;;;;;;;0.00;0.00;;;;;;;;;;5071188;28;20043;-80
2023/08/19 08:35:49;;;;;;;0.00;0.00;;;;;;;;;;5070839;28;20511;-80
2023/08/19 08:38:14;;;;;;;0.00;0.00;;;;;;;;;;5071104;28;20043;-80
2023/08/19 08:40:41;;;;;;;0.00;0.00;;;;;;;;;;5069520;28;20387;-80
2023/08/19 08:43:07;;;;;;;0.00;0.00;;;;;;;;;;5071330;28;20048;-80
2023/08/19 08:45:33;;;;;;;0.00;0.00;;;;;;;;;;5071191;28;20041;-81
2023/08/19 08:48:00;;;;;;;0.00;0.00;;;;;;;;;;5069913;28;20514;-80
2023/08/19 08:50:26;;;;;;;0.00;0.00;;;;;;;;;;5070803;28;20149;-80
2023/08/19 08:52:53;;;;;;;0.00;0.00;;;;;;;;;;5089441;28;20047;-81
2023/08/19 08:55:19;;;;;;;0.00;0.00;;;;;;;;;;5072950;28;20047;-81
2023/08/19 08:57:45;;;;;;;0.00;0.00;;;;;;;;;;5073243;28;20044;-80
2023/08/19 09:00:12;;;;;;;0.00;0.00;;;;;;;;;;5074187;28;20041;-80
2023/08/19 09:02:39;;;;;;;0.00;0.00;;;;;;;;;;5073467;28;20178;-83
2023/08/19 09:05:06;;;;;;;0.00;0.00;;;;;;;;;;5073001;28;20438;-80
2023/08/19 09:07:35;;;;;;;0.00;0.00;;;;;;;;;;5072985;28;20044;-80
2023/08/19 09:10:02;;;;;;;0.00;0.00;;;;;;;;;;5037566;28;1036115;-80
2023/08/19 09:12:29;;;;;;;0.00;0.00;;;;;;;;;;5075256;28;20508;-80
2023/08/19 09:14:58;;;;;;;0.00;0.00;;;;;;;;;;5074846;28;20044;-80
2023/08/19 09:17:24;;;;;;;0.00;0.00;;;;;;;;;;5074170;28;20502;-80
2023/08/19 09:19:50;;;;;;;0.00;0.00;;;;;;;;;;5074571;28;20037;-80
2023/08/19 09:22:16;;;;;;;0.00;0.00;;;;;;;;;;5073608;28;20102;-80
2023/08/19 09:24:43;;;;;;;0.00;0.00;;;;;;;;;;5074840;28;20068;-79
2023/08/19 09:27:14;;;;;;;0.00;0.00;;;;;;;;;;5075097;28;20503;-80
2023/08/19 09:29:50;;;;;;;0.10;0.10;;;;;;;;;;5090111;28;20040;-80
2023/08/19 09:32:16;;;;;;;0.00;0.00;;;;;;;;;;5074745;28;20051;-80
2023/08/19 09:34:42;;;;;;;0.00;0.00;;;;;;;;;;5074683;28;20036;-80
2023/08/19 09:37:11;;;;;;;0.00;0.00;;;;;;;;;;5074852;28;20032;-80
2023/08/19 09:39:37;;;;;;;0.00;0.00;;;;;;;;;;5090115;28;20047;-80
2023/08/19 09:42:03;;;;;;;0.00;0.00;;;;;;;;;;5090435;28;20051;-80
2023/08/19 09:44:30;;;;;;;0.00;0.00;;;;;;;;;;5074556;28;20079;-82
2023/08/19 09:46:56;;;;;;;0.03;0.03;;;;;;;;;;5073257;28;20069;-81
2023/08/19 09:49:23;;;;;;;0.00;0.00;;;;;;;;;;5073098;28;20041;-80
2023/08/19 09:51:54;;;;;;;0.05;0.00;;;;;;;;;;5072979;28;20131;-80
2023/08/19 09:54:20;;;;;;;0.00;0.00;;;;;;;;;;5074503;28;20071;-80
2023/08/19 09:56:53;;;;;;;0.00;0.00;;;;;;;;;;5072958;28;20416;-79
2023/08/19 09:59:19;;;;;;;0.00;0.00;;;;;;;;;;5074263;28;20040;-80
2023/08/19 10:01:45;;;;;;;0.00;0.00;;;;;;;;;;5074092;28;20055;-81
2023/08/19 10:04:11;;;;;;;0.00;0.00;;;;;;;;;;5071798;28;20040;-80
2023/08/19 10:06:40;;;;;;;0.00;0.00;;;;;;;;;;5074137;28;20040;-78
2023/08/19 10:09:08;;;;;;;0.00;0.00;;;;;;;;;;5074419;28;20120;-78
2023/08/19 10:11:36;;;;;;;0.00;0.00;;;;;;;;;;5073629;28;20141;-77
2023/08/19 10:14:06;;;;;;;0.00;0.00;;;;;;;;;;5072629;28;20044;-78
2023/08/19 10:16:33;;;;;;;0.00;0.00;;;;;;;;;;5073889;28;20037;-78
2023/08/19 10:19:00;;;;;;;0.00;0.00;;;;;;;;;;5074033;28;20127;-78
2023/08/19 10:21:27;;;;;;;0.00;0.00;;;;;;;;;;5072595;28;20365;-77
2023/08/19 10:23:53;;;;;;;0.00;0.00;;;;;;;;;;5072396;28;20051;-78
2023/08/19 10:26:19;;;;;;;0.00;0.00;;;;;;;;;;5072189;28;20044;-78
2023/08/19 10:29:03;;;;;;;0.00;0.00;;;;;;;;;;5073850;28;20190;-78
2023/08/19 10:31:29;;;;;;;0.00;0.00;;;;;;;;;;5073450;28;20084;-78
2023/08/19 10:33:56;;;;;;;0.00;0.00;;;;;;;;;;5073722;28;20037;-78
2023/08/19 10:36:26;;;;;;;0.00;0.00;;;;;;;;;;5073276;28;20082;-78
2023/08/19 10:39:00;;;;;;;0.00;0.00;;;;;;;;;;5072061;28;20463;-78
2023/08/19 10:41:30;;;;;;;0.00;0.00;;;;;;;;;;5073322;28;20040;-79
2023/08/19 10:44:05;;;;;;;0.00;0.00;;;;;;;;;;5072209;28;20044;-79
2023/08/19 10:49:21;;;;;;;0.00;0.00;;;;;;;;;;5071890;28;20383;-79
2023/08/19 10:52:00;;;;;;;0.00;0.00;;;;;;;;;;5071684;28;20048;-79
2023/08/19 10:54:45;;;;;;;0.00;0.00;;;;;;;;;;5088931;28;20115;-79
2023/08/19 10:57:11;;;;;;;0.00;0.00;;;;;;;;;;5072923;28;20086;-79
2023/08/19 10:59:38;;;;;;;0.00;0.00;;;;;;;;;;5072963;28;20047;-79
2023/08/19 11:02:08;;;;;;;0.00;0.00;;;;;;;;;;5072603;28;20044;-79
2023/08/19 11:04:34;;;;;;;0.00;0.00;;;;;;;;;;5071622;28;20139;-79
2023/08/19 11:07:02;;;;;;;0.00;0.00;;;;;;;;;;5072467;28;20064;-79
2023/08/19 11:09:28;;;;;;;0.00;0.00;;;;;;;;;;5088166;28;20123;-78
2023/08/19 11:11:58;;;;;;;0.00;0.00;;;;;;;;;;5071230;28;20052;-78
2023/08/19 11:14:25;;;;;;;0.00;0.00;;;;;;;;;;5072059;28;20040;-78
2023/08/19 11:16:51;;;;;;;0.00;0.00;;;;;;;;;;5071119;28;20434;-78
2023/08/19 11:19:18;;;;;;;0.00;0.00;;;;;;;;;;5071484;28;20059;-80
2023/08/19 11:21:44;;;;;;;0.00;0.00;;;;;;;;;;5071489;28;20127;-78
2023/08/19 11:24:13;;;;;;;0.00;0.00;;;;;;;;;;5072623;28;20376;-79
2023/08/19 11:26:43;;;;;;;0.00;0.00;;;;;;;;;;5072381;28;20051;-79
2023/08/19 11:29:09;;;;;;;0.00;0.00;;;;;;;;;;5071425;28;20568;-78
2023/08/19 11:31:35;;;;;;;0.00;0.00;;;;;;;;;;5070908;28;20368;-78
2023/08/19 11:34:06;;;;;;;0.00;0.00;;;;;;;;;;5072671;28;20033;-78
2023/08/19 11:36:32;;;;;;;0.00;0.00;;;;;;;;;;5072375;28;20032;-78
2023/08/19 11:38:58;;;;;;;0.00;0.00;;;;;;;;;;5071329;28;20041;-80
2023/08/19 11:41:24;;;;;;;0.00;0.00;;;;;;;;;;5072504;28;20086;-78
2023/08/19 11:43:53;;;;;;;0.00;0.00;;;;;;;;;;5073097;28;20044;-78
2023/08/19 11:46:19;;;;;;;0.00;0.00;;;;;;;;;;5072627;28;20275;-78
2023/08/19 11:48:45;;;;;;;0.00;0.00;;;;;;;;;;5071484;28;20040;-78
2023/08/19 11:51:12;;;;;;;0.00;0.00;;;;;;;;;;5087819;28;20067;-78
2023/08/19 11:53:38;;;;;;;0.00;0.00;;;;;;;;;;5072411;28;20040;-78
2023/08/19 11:56:04;;;;;;;0.00;0.00;;;;;;;;;;5072247;28;20082;-78
2023/08/19 11:58:42;;;;;;;0.00;0.00;;;;;;;;;;5072255;28;20081;-78
2023/08/19 12:01:08;;;;;;;0.00;0.00;;;;;;;;;;5072148;28;20040;-78
2023/08/19 12:03:34;;;;;;;0.00;0.00;;;;;;;;;;5072436;28;20072;-78
2023/08/19 12:06:00;;;;;;;0.00;0.00;;;;;;;;;;5070787;28;20093;-77
2023/08/19 12:08:28;;;;;;;0.00;0.00;;;;;;;;;;5072059;28;20028;-77
2023/08/19 12:10:54;;;;;;;0.00;0.00;;;;;;;;;;5071951;28;20488;-78
2023/08/19 12:13:23;;;;;;;0.45;0.32;;;;;;;;;;5072263;28;20213;-78
2023/08/19 12:15:49;;;;;;;0.00;0.00;;;;;;;;;;5072435;28;20045;-78
2023/08/19 12:18:18;;;;;;;0.00;0.00;;;;;;;;;;5072289;28;20112;-78
2023/08/19 12:20:45;;;;;;;0.00;0.00;;;;;;;;;;5071026;28;20170;-79
2023/08/19 12:23:11;;;;;;;0.00;0.00;;;;;;;;;;5071954;28;20040;-78
2023/08/19 12:25:47;;;;;;;0.00;0.00;;;;;;;;;;5072321;28;20045;-78
2023/08/19 12:28:13;;;;;;;0.00;0.00;;;;;;;;;;5075981;28;20395;-78
2023/08/19 12:30:39;;;;;;;0.00;0.00;;;;;;;;;;5075090;28;20124;-78
2023/08/19 12:33:05;;;;;;;0.00;0.00;;;;;;;;;;5075022;28;20380;-78
2023/08/19 12:35:31;;;;;;;0.00;0.00;;;;;;;;;;5075249;28;20068;-78
2023/08/19 12:37:57;;;;;;;0.00;0.00;;;;;;;;;;5076006;28;20044;-78
2023/08/19 12:40:23;;;;;;;0.00;0.00;;;;;;;;;;5075980;28;20037;-78
2023/08/19 12:42:50;;;;;;;0.00;0.00;;;;;;;;;;5091411;28;20048;-78
2023/08/19 12:45:16;;;;;;;0.00;0.00;;;;;;;;;;5074367;28;20509;-78
2023/08/19 12:47:42;;;;;;;0.00;0.00;;;;;;;;;;5075536;28;20604;-78
2023/08/19 12:50:08;;;;;;;0.32;0.32;;;;;;;;;;5074263;28;20127;-78
2023/08/19 12:52:34;;;;;;;0.00;0.00;;;;;;;;;;5074083;28;20082;-78
2023/08/19 12:55:02;;;;;;;0.00;0.00;;;;;;;;;;5091694;28;20040;-78
2023/08/19 12:57:28;;;;;;;0.05;0.05;;;;;;;;;;5091330;28;20119;-78
2023/08/19 12:59:54;;;;;;;0.00;0.00;;;;;;;;;;5075721;28;20068;-78
2023/08/19 13:02:20;;;;;;;0.00;0.00;;;;;;;;;;5074329;28;20078;-78
2023/08/19 13:04:46;;;;;;;0.00;0.00;;;;;;;;;;5074698;28;20086;-78
2023/08/19 13:07:12;;;;;;;0.00;0.00;;;;;;;;;;5073882;28;20051;-78
2023/08/19 13:09:38;;;;;;;0.00;0.00;;;;;;;;;;5073502;28;20071;-79
2023/08/19 13:12:04;;;;;;;0.00;0.00;;;;;;;;;;5073594;28;20044;-78
2023/08/19 13:14:30;;;;;;;0.17;0.00;;;;;;;;;;5075578;28;20059;-79
2023/08/19 13:16:56;;;;;;;0.00;0.00;;;;;;;;;;5074791;28;20451;-78
2023/08/19 13:19:22;;;;;;;0.00;0.00;;;;;;;;;;5073613;28;20040;-78
2023/08/19 13:21:48;;;;;;;0.32;0.32;;;;;;;;;;5073573;28;20050;-78
2023/08/19 13:24:14;;;;;;;0.00;0.00;;;;;;;;;;5074991;28;20048;-79
2023/08/19 13:26:41;;;;;;;0.00;0.00;;;;;;;;;;5075176;28;20043;-78
2023/08/19 13:29:07;;;;;;;0.00;0.00;;;;;;;;;;5090438;28;20041;-78
2023/08/19 13:31:33;;;;;;;0.00;0.00;;;;;;;;;;5073627;28;20052;-78
2023/08/19 13:34:02;;;;;;;0.00;0.00;;;;;;;;;;5074511;28;20044;-78
2023/08/19 13:36:29;;;;;;;0.00;0.00;;;;;;;;;;5073783;28;20040;-80
2023/08/19 13:38:57;;;;;;;0.00;0.00;;;;;;;;;;5074338;28;20369;-79
2023/08/19 13:41:23;;;;;;;0.00;0.00;;;;;;;;;;5073185;28;20120;-79
2023/08/19 13:43:49;;;;;;;0.00;0.00;;;;;;;;;;5074553;28;20127;-80
2023/08/19 13:46:15;;;;;;;0.00;0.00;;;;;;;;;;5073543;28;20041;-80
2023/08/19 13:48:42;;;;;;;0.00;0.00;;;;;;;;;;5089064;28;20032;-79
2023/08/19 13:51:10;;;;;;;0.00;0.00;;;;;;;;;;5072253;28;20036;-80
2023/08/19 13:53:37;;;;;;;0.00;0.00;;;;;;;;;;5072889;28;20499;-79
2023/08/19 13:56:03;;;;;;;0.00;0.00;;;;;;;;;;5073187;28;20085;-78
2023/08/19 13:58:29;;;;;;;0.00;0.00;;;;;;;;;;5073817;28;20047;-80
2023/08/19 14:00:56;;;;;;;0.00;0.00;;;;;;;;;;5072976;28;20044;-80
2023/08/19 14:03:23;;;;;;;0.10;0.00;;;;;;;;;;5072739;28;20040;-81
2023/08/19 14:05:49;;;;;;;0.00;0.00;;;;;;;;;;5073744;28;20128;-80
2023/08/19 14:08:15;;;;;;;0.32;0.32;;;;;;;;;;5073571;28;20076;-80
2023/08/19 14:10:41;;;;;;;0.00;0.00;;;;;;;;;;5073907;28;20084;-81
2023/08/19 14:13:07;;;;;;;0.00;0.00;;;;;;;;;;5073986;28;20048;-79
2023/08/19 14:15:33;;;;;;;0.00;0.00;;;;;;;;;;5073541;28;20064;-79
2023/08/19 14:17:59;;;;;;;0.00;0.00;;;;;;;;;;5073445;28;20106;-79
2023/08/19 14:20:26;;;;;;;0.00;0.00;;;;;;;;;;5073958;28;20118;-80
2023/08/19 14:22:52;;;;;;;0.00;0.00;;;;;;;;;;5089446;28;20121;-79
2023/08/19 14:25:18;;;;;;;0.00;0.00;;;;;;;;;;5073987;28;20491;-79
2023/08/19 14:27:44;;;;;;;0.00;0.00;;;;;;;;;;5073598;28;20478;-79
2023/08/19 14:30:11;;;;;;;0.00;0.00;;;;;;;;;;5072208;28;20113;-79
2023/08/19 14:32:37;;;;;;;0.00;0.00;;;;;;;;;;5089127;28;20079;-79
2023/08/19 14:35:03;;;;;;;0.00;0.00;;;;;;;;;;5072118;28;20037;-80
2023/08/19 14:37:29;;;;;;;0.00;0.00;;;;;;;;;;5071403;28;20519;-79
2023/08/19 14:39:55;;;;;;;0.00;0.00;;;;;;;;;;5071820;28;20043;-79
2023/08/19 14:42:22;;;;;;;0.00;0.00;;;;;;;;;;5073176;28;20044;-79
2023/08/19 14:44:50;;;;;;;0.00;0.00;;;;;;;;;;5071416;28;20480;-80